Lakeview, OR

9:44 PM PDT on September 01, 2014 (GMT -0700)
Lake County | Change Station
CLOSE
Current Station
Airport
Location: Lakeview AWS,
Elevation: 4728 ft
Nearby Weather Stations

Elev 4728 ft 42.16 °N, 120.40 °W | Updated 9 minutes ago

Clear
Clear
57 °F
Feels Like 57 °F
N
10
Wind Variable Wind from NNW

Today
High -- | Low -- °F
--% Chance of Precip.
Yesterday
High -- | Low -- °F
Precip. -- in
6:27 AM 7:35 PM
Waxing Crescent, 47% visible
Pressure 30.07 in
Visibility 10.0 miles
Clouds Clear
Dew Point 34 °F
Humidity 41%
Rainfall 0.00 in
Snow Depth Not available.
UV 0 out of 12
Pollen 5.10 out of 12
Air Quality Not available.
Flu Activity Not available.
METAR KLKV 020435Z AUTO 33009KT 10SM CLR 14/01 A3007 RMK AO1

More Conditions Fewer Conditions

Pressure 30.07 in
Visibility 10.0 miles
Clouds Clear
Dew Point 34 °F
Humidity 41%
Rainfall 0.00 in
Snow Depth Not available.
UV 0 out of 12
Pollen 5.10 out of 12
Air Quality Not available.
Flu Activity Not available.
METAR KLKV 020435Z AUTO 33009KT 10SM CLR 14/01 A3007 RMK AO1

More Conditions Fewer Conditions

10-Day Weather Forecast

Almanac

Astronomy

Sep. 01, 2014 Rise Set
Actual Time 6:27 AM PDT 7:35 PM PDT
Civil Twilight 5:58 AM PDT 8:03 PM PDT
Nautical Twilight 5:23 AM PDT 8:38 PM PDT
Astronomical Twilight 4:47 AM PDT 9:14 PM PDT
Moon 1:25 PM PDT (9/1) 11:33 PM PDT (9/1)
Length of Visible Light 14h 05m
Length of Day
13h 08m
Tomorrow will be 2m 44s shorter.
Waxing Crescent, 47% of the Moon is Illuminated
Sep 2
Waxing Crescent
Sep 2
First Quarter
Sep 8
Full
Sep 15
Last Quarter
Sep 24
New

Yesterday's Extremes

State Highs State Lows

Community

WunderPhotos

Upload Photos

1,749,573 photos uploaded!

WunderBlogs® & News

Nearby

Snow Depth

Station Depth Elevation
Quartz Mountain 0 in 5700 ft
Strawberry 0 in 5760 ft
Cold Springs Camp 0 in 6100 ft
Fourmile Lake 2 in 6000 ft
Sevenmile Marsh 0 in 6200 ft

Earthquake Activity

City Distance Mag. Time & Date
No recent earthquake activity has been reported nearby.
Minimum magnitude displayed is 2.5.

Coastal Water Temperatures

Place Temperature
No Stations Reporting

Nearby Weather Stations